Baden Oos, Germany

5:20 PM CET on February 27, 2015 (GMT +0100)
Bad Rotenfels | Change Station
CLOSE
Current Station
Personal Weather Station
Location: Gaggenau, BADEN-WüRTTEMBERG
Elevation: 453 ft
Nearby Weather Stations

Elev 453 ft 48.82 °N, 8.30 °E | Updated 14 seconds ago

Light Rain
Light Rain
40.8 °F
Feels Like 41 °F
N
0.0
Wind Variable Wind from SSW
Gusts 0.0 mph

Today
High -- | Low -- °F
--% Chance of Precip.
Yesterday
High -- | Low -- °F
Precip. -- in
7:13 AM 6:06 PM
Waxing Gibbous, 70% visible
Pressure 30.04 in
Visibility 6.2 miles
Clouds Few 2700 ft
Scattered Clouds 4300 ft
Overcast 5000 ft
Windchill 41 °F
Dew Point 41 °F
Humidity 99%
Rainfall 0.40 in
Snow Depth Not available.
UV 0.0 out of 12
Pollen Not available.
Air Quality Not available.
Flu Activity Not available.
METAR LFST 271600Z AUTO 32014KT 9999 -RA FEW027 SCT043 OVC050 05/03 Q1017

More Conditions Fewer Conditions

Pressure 30.04 in
Visibility 6.2 miles
Clouds Few 2700 ft
Scattered Clouds 4300 ft
Overcast 5000 ft
Windchill 41 °F
Dew Point 41 °F
Humidity 99%
Rainfall 0.40 in
Snow Depth Not available.
UV 0.0 out of 12
Pollen Not available.
Air Quality Not available.
Flu Activity Not available.
METAR LFST 271600Z AUTO 32014KT 9999 -RA FEW027 SCT043 OVC050 05/03 Q1017

More Conditions Fewer Conditions

10-Day Weather Forecast

Almanac

Astronomy

Feb. 27, 2015 Rise Set
Actual Time
Civil Twilight
Nautical Twilight
Astronomical Twilight
Moon
Length of Visible Light
Length of Day
Tomorrow will be .
, % of the Moon is Illuminated

Today's Extremes

Country Highs Country Lows

Community

WunderPhotos

Upload Photos

1,800,732 photos uploaded!

WunderBlogs® & News

Nearby

Air Quality

  Air Quality AQ Index Pollutant
Not available.

Snow Depth

Station Depth Elevation

Earthquake Activity

City Distance Mag. Time & Date
Minimum magnitude displayed is 2.5.

Coastal Water Temperatures

Place Temperature

Nearby Weather Stations